Free Trial

ProShares Short VIX Short-Term Futures ETF (SVXY) Institutional Ownership

ProShares Short VIX Short-Term Futures ETF logo
$50.77 +0.17 (+0.34%)
As of 05/5/2026 04:10 PM Eastern

Institutional Ownership Changes (13F Filings) for ProShares Short VIX Short-Term Futures ETF (BATS:SVXY)

Number of
Institutional Buyers
(last 12 months)
21
Total
Institutional Inflows
(last 12 months)
$21.77M
Number of
Institutional Sellers
(last 12 months)
5
Total
Institutional Outflows
(last 12 months)
$7.35M
Get SVXY Insider Trade Alerts

Want to know when executives and insiders are buying or selling ProShares Short VIX Short-Term Futures ETF stock? Sign up for InsiderTrades.com's daily newsletter to get the latest insider transactions delivered to your inbox daily.

SMS is currently available in Australia, Belgium, Canada, France, Germany, Ireland, Italy, New Zealand, the Netherlands, Singapore, South Africa, Spain, Switzerland, the United Kingdom, and the United States. By entering your phone number and clicking the sign-up button, you agree to receive periodic text messages from MarketBeat at the phone number you submitted, including texts that may be sent using an automatic telephone dialing system. Message and data rates may apply. Message frequency will vary. Messages will consist of stock alerts, news stories, and partner advertisements/offers. Consent is not a condition of the purchase of any goods or services. Text HELP for help/customer support. Unsubscribe at any time by replying "STOP" to any text message that you receive from MarketBeat or by visiting our mailing preferences page. Read our full terms of service and privacy policy.
Skip Chart & View Institutional Buying and Selling Data

SVXY Institutional Buying and Selling by Quarter

ProShares Short VIX Short-Term Futures ETF Major Shareholders & Ownership History

Reporting DateMajor Shareholder NameShares HeldMarket Value% of PortfolioQuarterly Change in SharesOwnership in CompanyDetails
5/5/2026IMC Chicago LLC12,852$589K0.0%-63.6%0.196%
4/29/2026 Clare Market Investments LLC12,500$572K0.1%N/A0.190%
4/17/2026 Ramsey Quantitative Systems38,475$1.76M1.8%+53.2%0.586%
2/18/2026Boothbay Fund Management LLC10,001$554K0.0%-56.5%0.152%
2/13/2026Headlands Technologies LLC44,452$2.46M0.2%N/A0.677%
2/12/2026HRT Financial LP4,106$227K0.0%N/A0.062%
2/12/2026DRW Securities LLC65,021$3.60M0.1%+29.3%0.990%
2/11/2026Simplex Trading LLC19,041$1.05M0.0%+147.8%0.290%
1/29/2026IMC Chicago LLC35,284$1.95M0.0%-47.8%0.537%
1/28/2026 QVR LLC25,001$1.39M0.1%+8.7%0.381%
1/14/2026 Spire Wealth Management501$28K0.0%N/A0.008%
1/13/2026 Ramsey Quantitative Systems25,120$1.39M1.3%N/A0.382%
1/8/2026 Wealth Enhancement Advisory Services LLC26,700$1.50M0.0%-7.6%0.406%
1/1/2026JPMorgan Chase & Co.3,946$201K0.0%N/A0.060%
11/17/2025Sig Brokerage LP4,500$229K0.0%N/A0.068%
11/17/2025Flow Traders U.S. LLC40,319$2.05M0.1%-29.9%0.614%
11/17/2025Boothbay Fund Management LLC23,001$1.17M0.0%-15.1%0.350%
11/14/2025Two Sigma Investments LP73,571$3.75M0.0%N/A1.120%
11/14/2025Mariner Investment Group LLC12,500$637K0.2%N/A0.190%
11/7/2025JPMorgan Chase & Co.3,946$201K0.0%N/A0.060%
11/4/2025IMC Chicago LLC67,572$3.44M0.0%-11.8%1.028%
11/3/2025 Belpointe Asset Management LLC6,420$327K0.0%N/A0.098%
10/29/2025 Wealth Enhancement Advisory Services LLC28,900$1.46M0.0%-40.9%0.440%
10/27/2025 QVR LLC23,001$1.17M0.1%-15.8%0.350%
8/16/2025Headlands Technologies LLC768$33K0.0%N/A0.012%
8/15/2025Group One Trading LLC16,380$698K0.0%N/A0.249%
8/15/2025Boothbay Fund Management LLC27,100$1.15M0.0%N/A0.412%
8/14/2025Chicago Wealth Management Inc.15,284$651K0.3%+117.3%0.233%
8/13/2025Jump Financial LLC26,198$1.12M0.0%N/A0.399%
8/13/2025Flow Traders U.S. LLC57,497$2.45M0.1%+108.1%0.875%
8/12/2025 QVR LLC27,307$1.16M0.1%N/A0.416%
8/6/2025Legacy Wealth Managment LLC ID8,820$376K0.2%N/A0.134%
8/5/2025Simplex Trading LLC16,357$696K0.0%N/A0.249%
8/4/2025 Spire Wealth Management2,701$115K0.0%N/A0.041%
7/10/2025 Wealth Enhancement Advisory Services LLC48,900$2.09M0.0%N/A0.707%
5/14/2025Chicago Wealth Management Inc.7,035$322K0.2%N/A0.054%
5/14/2025Flow Traders U.S. LLC27,625$1.26M0.1%-41.5%0.211%
5/8/2025Commerce Bank4,420$202K0.0%N/A0.027%
4/9/2025Selway Asset Management50,200$2.30M0.9%-4.0%0.944%
2/17/2025Group One Trading LLC20,975$1.05M0.0%-86.0%0.391%
2/17/2025Gotham Asset Management LLC10,062$542K0.0%+3.9%0.187%
2/14/2025Two Sigma Securities LLC30,834$1.54M0.2%+187.6%0.574%
2/14/2025Tower Research Capital LLC TRC48,339$2.42M0.0%-71.1%0.900%
2/13/2025Jump Financial LLC29,670$1.49M0.0%+96.1%0.553%
2/13/2025Mariner LLC5,780$289K0.0%N/A0.108%
2/12/2025Selway Asset Management52,300$2.62M1.0%-6.1%0.974%
2/12/2025Headlands Technologies LLC1,564$78K0.0%N/A0.029%
2/11/2025Simplex Trading LLC45,228$2.26M0.0%+79.6%0.842%
2/10/2025Horizon Kinetics Asset Management LLC26,317$1.32M0.0%-1.1%0.490%
1/27/2025IMC Chicago LLC168,913$8.46M0.0%+31.3%3.145%
1/24/2025Spire Wealth Management1,601$80K0.0%-33.3%0.030%
12/26/2024JPMorgan Chase & Co.7,710$386K0.0%-54.0%0.144%
11/14/2024Flow Traders U.S. LLC42,374$2.12M0.1%N/A0.789%
11/13/2024Horizon Kinetics Asset Management LLC26,617$1.33M0.0%+4.7%0.496%
11/13/2024DRW Securities LLC5,104$256K0.0%N/A0.095%
11/8/2024Commerce Bank4,760$239K0.0%N/A0.089%
10/29/2024Mariner Investment Group LLC183,000$9.17M2.5%N/A3.408%
10/25/2024IMC Chicago LLC128,664$6.45M0.0%N/A2.396%
10/11/2024Selway Asset Management55,700$2.79M1.1%+34.2%1.037%
8/7/2024Headlands Technologies LLC3,875$238K0.0%+281.4%0.072%
5/16/2024Jane Street Group LLC134,963$15.22M0.0%+79.2%2.513%
5/15/2024Flow Traders U.S. LLC36,645$4.13M0.2%+8.0%0.682%
5/14/2024Axxcess Wealth Management LLC3,203$361K0.0%N/A0.060%
5/8/2024Headlands Technologies LLC1,016$115K0.0%-50.4%0.019%
5/1/2024BNP Paribas Financial Markets54,283$6.12M0.0%+710.9%1.011%
4/13/2024IMC Chicago LLC61,397$6.92M0.0%+43.7%1.872%
4/10/2024Selway Asset Management15,887$1.79M0.7%+3.2%0.484%
2/13/2024Tower Research Capital LLC TRC 32,153$3.33M0.0%-24.4%0.980%
2/9/2024IMC Chicago LLC42,734$4.42M0.0%N/A1.303%
2/7/2024Jump Financial LLC69,654$7.20M0.2%N/A2.124%
2/7/2024BNP Paribas Financial Markets6,694$692K0.0%-23.0%0.204%
2/7/2024Selway Asset Management15,387$1.59M0.7%+34.0%0.469%
2/6/2024Spire Wealth Management700$74K0.0%+40.0%0.021%
2/2/2024Headlands Technologies LLC2,048$212K0.1%+229.3%0.062%
1/22/2024Oak Thistle LLC17,651$1.83M0.5%N/A0.538%
11/14/2023Tower Research Capital LLC TRC42,516$3.67M0.1%+7.3%1.296%
11/9/2023Group One Trading L.P.87,260$7.53M0.0%+1,154.5%2.660%
11/9/2023Headlands Technologies LLC622$54K0.0%N/A0.019%
11/9/2023Gemsstock Ltd.588,900$50.82M22.3%N/A17.954%
11/7/2023Barclays PLC5,810$502K0.0%+100.0%0.177%
11/1/2023Selway Asset Management14,787$1.21M0.6%+28.3%0.451%
10/24/2023Trellus Management Company LLC10,000$863K1.2%N/A0.305%
10/13/2023SG Americas Securities LLC10,571$913K0.0%+5.0%0.322%
8/14/2023Tower Research Capital LLC TRC39,630$3.36M0.1%-27.2%1.208%
8/14/2023Two Sigma Securities LLC10,678$904K0.0%-75.0%0.326%
8/14/2023Horizon Kinetics Asset Management LLC706,554$59.83M1.3%-6.7%21.541%
8/10/2023Citigroup Inc.18,500$1.57M0.0%+109.8%0.564%
8/9/2023BNP Paribas Arbitrage SNC27,467$2.33M0.0%+215.9%0.837%
8/9/2023Flow Traders U.S. LLC16,939$1.43M0.1%-61.6%0.516%
7/27/2023Selway Asset Management11,527$976K0.4%+186.2%0.380%
7/26/2023Oak Thistle LLC30,951$2.62M1.4%+12.6%1.021%
7/14/2023IMC Chicago LLC17,167$1.45M0.0%-67.2%0.567%
7/10/2023SG Americas Securities LLC10,071$853K0.0%-3.4%0.332%
5/15/2023Two Sigma Securities LLC42,700$2.72M0.1%+152.2%0.922%
5/15/2023Flow Traders U.S. LLC44,062$2.81M0.1%+18.1%0.952%
5/12/2023HRT Financial LP149,198$9.51M0.1%+681.3%3.222%
5/10/2023Selway Asset Management4,027$257K0.1%-66.5%0.087%
5/9/2023Spire Wealth Management400$26K0.0%-33.3%0.009%
5/9/2023Tower Research Capital LLC TRC54,465$3.47M0.1%-69.4%1.176%
5/4/2023Barclays PLC9,305$593K0.0%+220.3%0.201%


SVXY Institutional Ownership - Frequently Asked Questions

Who are the largest shareholders of SVXY shares?

During the previous two years, 30 institutional investors and hedge funds held shares of ProShares Short VIX Short-Term Futures ETF. The most heavily invested institutionals were Jane Street Group LLC ($15.22M), Two Sigma Investments LP ($3.75M), DRW Securities LLC ($3.60M), Headlands Technologies LLC ($2.46M), Tower Research Capital LLC TRC ($2.42M), Selway Asset Management ($2.30M), and Flow Traders U.S. LLC ($2.05M).Learn more on ProShares Short VIX Short-Term Futures ETF's institutional investors.

Which institutional investors have been buying ProShares Short VIX Short-Term Futures ETF's stock?

Of the 29 institutional investors that purchased ProShares Short VIX Short-Term Futures ETF's stock in the last 24 months, the following investors and hedge funds have bought the highest volume of shares: Mariner Investment Group LLC ($195.50K), IMC Chicago LLC ($168.91K), Flow Traders U.S. LLC ($74.97K), Two Sigma Investments LP ($73.57K), Jane Street Group LLC ($59.63K), Headlands Technologies LLC ($49.64K), and Wealth Enhancement Advisory Services LLC ($48.90K).

How much institutional buying is happening at ProShares Short VIX Short-Term Futures ETF?

Institutional investors have bought a total of 457,120 shares in the last 24 months. This purchase volume represents approximately $21.77M in transactions.

Which of ProShares Short VIX Short-Term Futures ETF's major shareholders have been selling company stock?

The following institutional investors have sold ProShares Short VIX Short-Term Futures ETF stock in the last 24 months: IMC Chicago LLC ($63.80K), Flow Traders U.S. LLC ($36.75K), Wealth Enhancement Advisory Services LLC ($22.20K), Boothbay Fund Management LLC ($17.10K), and QVR LLC ($4.31K).

How much institutional selling is happening at ProShares Short VIX Short-Term Futures ETF?

Institutional investors have sold a total of 144,147 shares in the last 24 months. This volume of shares sold represents approximately $7.35M in transactions.



This page (BATS:SVXY) was last updated on 5/6/2026 by MarketBeat.com Staff.
From Our Partners